sensor_id;sensor_type;location;lat;lon;timestamp;P1;durP1;ratioP1;P2;durP2;ratioP2
9160;SDS011;4615;51.340;8.288;2023-04-06T00:01:06;10.05;;;8.50;;
9160;SDS011;4615;51.340;8.288;2023-04-06T00:03:32;9.30;;;8.35;;
9160;SDS011;4615;51.340;8.288;2023-04-06T00:05:58;9.23;;;8.32;;
9160;SDS011;4615;51.340;8.288;2023-04-06T00:08:27;10.07;;;9.07;;
9160;SDS011;4615;51.340;8.288;2023-04-06T00:10:53;9.13;;;8.23;;
9160;SDS011;4615;51.340;8.288;2023-04-06T00:13:20;8.90;;;7.90;;
9160;SDS011;4615;51.340;8.288;2023-04-06T00:15:46;8.68;;;7.78;;
9160;SDS011;4615;51.340;8.288;2023-04-06T00:18:13;10.52;;;9.02;;
9160;SDS011;4615;51.340;8.288;2023-04-06T00:20:39;9.18;;;8.27;;
9160;SDS011;4615;51.340;8.288;2023-04-06T00:23:06;9.80;;;8.80;;
9160;SDS011;4615;51.340;8.288;2023-04-06T00:25:33;9.38;;;8.52;;
9160;SDS011;4615;51.340;8.288;2023-04-06T00:28:00;9.38;;;8.48;;
9160;SDS011;4615;51.340;8.288;2023-04-06T00:30:27;8.65;;;7.85;;
9160;SDS011;4615;51.340;8.288;2023-04-06T00:32:53;8.33;;;7.27;;
9160;SDS011;4615;51.340;8.288;2023-04-06T00:35:19;7.93;;;7.13;;
9160;SDS011;4615;51.340;8.288;2023-04-06T00:37:46;7.93;;;7.10;;
9160;SDS011;4615;51.340;8.288;2023-04-06T00:40:13;7.78;;;6.97;;
9160;SDS011;4615;51.340;8.288;2023-04-06T00:42:40;7.95;;;7.15;;
9160;SDS011;4615;51.340;8.288;2023-04-06T00:45:07;7.93;;;7.20;;
9160;SDS011;4615;51.340;8.288;2023-04-06T00:47:34;7.63;;;6.93;;
9160;SDS011;4615;51.340;8.288;2023-04-06T00:50:00;7.95;;;7.20;;
9160;SDS011;4615;51.340;8.288;2023-04-06T00:52:27;8.48;;;7.70;;
9160;SDS011;4615;51.340;8.288;2023-04-06T00:54:54;7.70;;;6.90;;
9160;SDS011;4615;51.340;8.288;2023-04-06T00:57:20;7.68;;;6.95;;
9160;SDS011;4615;51.340;8.288;2023-04-06T00:59:48;7.87;;;7.07;;
9160;SDS011;4615;51.340;8.288;2023-04-06T01:02:15;7.95;;;7.15;;
9160;SDS011;4615;51.340;8.288;2023-04-06T01:04:41;8.48;;;6.93;;
9160;SDS011;4615;51.340;8.288;2023-04-06T01:07:08;7.82;;;7.03;;
9160;SDS011;4615;51.340;8.288;2023-04-06T01:09:35;7.50;;;6.15;;
9160;SDS011;4615;51.340;8.288;2023-04-06T01:12:01;8.80;;;7.32;;
9160;SDS011;4615;51.340;8.288;2023-04-06T01:14:28;7.85;;;7.05;;
9160;SDS011;4615;51.340;8.288;2023-04-06T01:16:57;7.63;;;6.97;;
9160;SDS011;4615;51.340;8.288;2023-04-06T01:19:24;7.95;;;7.15;;
9160;SDS011;4615;51.340;8.288;2023-04-06T01:21:50;7.88;;;7.18;;
9160;SDS011;4615;51.340;8.288;2023-04-06T01:24:19;8.23;;;7.20;;
9160;SDS011;4615;51.340;8.288;2023-04-06T01:26:46;8.30;;;7.47;;
9160;SDS011;4615;51.340;8.288;2023-04-06T01:29:12;7.93;;;7.13;;
9160;SDS011;4615;51.340;8.288;2023-04-06T01:31:39;8.38;;;7.53;;
9160;SDS011;4615;51.340;8.288;2023-04-06T01:34:05;8.45;;;7.65;;
9160;SDS011;4615;51.340;8.288;2023-04-06T01:36:32;6.93;;;6.32;;
9160;SDS011;4615;51.340;8.288;2023-04-06T01:38:58;7.73;;;6.87;;
9160;SDS011;4615;51.340;8.288;2023-04-06T01:41:26;8.02;;;7.32;;
9160;SDS011;4615;51.340;8.288;2023-04-06T01:43:53;8.65;;;7.70;;
9160;SDS011;4615;51.340;8.288;2023-04-06T01:46:20;8.55;;;7.75;;
9160;SDS011;4615;51.340;8.288;2023-04-06T01:48:46;7.70;;;7.00;;
9160;SDS011;4615;51.340;8.288;2023-04-06T01:51:14;8.60;;;7.32;;
9160;SDS011;4615;51.340;8.288;2023-04-06T01:53:40;7.60;;;6.90;;
9160;SDS011;4615;51.340;8.288;2023-04-06T01:56:06;7.75;;;6.85;;
9160;SDS011;4615;51.340;8.288;2023-04-06T01:58:34;7.63;;;6.90;;
9160;SDS011;4615;51.340;8.288;2023-04-06T02:01:01;7.45;;;6.75;;
9160;SDS011;4615;51.340;8.288;2023-04-06T02:03:27;8.35;;;7.55;;
9160;SDS011;4615;51.340;8.288;2023-04-06T02:05:54;8.05;;;7.25;;
9160;SDS011;4615;51.340;8.288;2023-04-06T02:08:20;6.90;;;6.30;;
9160;SDS011;4615;51.340;8.288;2023-04-06T02:10:47;8.05;;;7.25;;
9160;SDS011;4615;51.340;8.288;2023-04-06T02:13:13;8.53;;;7.73;;
9160;SDS011;4615;51.340;8.288;2023-04-06T02:15:41;8.67;;;7.27;;
9160;SDS011;4615;51.340;8.288;2023-04-06T02:18:08;8.18;;;7.47;;
9160;SDS011;4615;51.340;8.288;2023-04-06T02:20:35;8.40;;;7.50;;
9160;SDS011;4615;51.340;8.288;2023-04-06T02:23:01;8.38;;;7.57;;
9160;SDS011;4615;51.340;8.288;2023-04-06T02:25:27;8.27;;;7.28;;
9160;SDS011;4615;51.340;8.288;2023-04-06T02:27:54;8.48;;;7.55;;
9160;SDS011;4615;51.340;8.288;2023-04-06T02:30:21;8.25;;;7.43;;
9160;SDS011;4615;51.340;8.288;2023-04-06T02:32:48;7.80;;;7.03;;
9160;SDS011;4615;51.340;8.288;2023-04-06T02:35:15;8.00;;;7.20;;
9160;SDS011;4615;51.340;8.288;2023-04-06T02:37:41;8.20;;;7.40;;
9160;SDS011;4615;51.340;8.288;2023-04-06T02:40:08;8.20;;;7.40;;
9160;SDS011;4615;51.340;8.288;2023-04-06T02:42:35;7.78;;;7.07;;
9160;SDS011;4615;51.340;8.288;2023-04-06T02:45:01;7.45;;;6.75;;
9160;SDS011;4615;51.340;8.288;2023-04-06T02:47:28;7.32;;;6.63;;
9160;SDS011;4615;51.340;8.288;2023-04-06T02:49:56;7.80;;;7.00;;
9160;SDS011;4615;51.340;8.288;2023-04-06T02:52:22;7.07;;;6.38;;
9160;SDS011;4615;51.340;8.288;2023-04-06T02:54:49;7.32;;;6.63;;
9160;SDS011;4615;51.340;8.288;2023-04-06T02:57:16;8.03;;;7.23;;
9160;SDS011;4615;51.340;8.288;2023-04-06T02:59:42;7.13;;;6.40;;
9160;SDS011;4615;51.340;8.288;2023-04-06T03:02:09;7.37;;;6.67;;
9160;SDS011;4615;51.340;8.288;2023-04-06T03:04:35;7.30;;;6.63;;
9160;SDS011;4615;51.340;8.288;2023-04-06T03:07:03;8.25;;;6.78;;
9160;SDS011;4615;51.340;8.288;2023-04-06T03:09:30;7.20;;;6.60;;
9160;SDS011;4615;51.340;8.288;2023-04-06T03:11:56;7.70;;;6.50;;
9160;SDS011;4615;51.340;8.288;2023-04-06T03:14:23;7.38;;;6.68;;
9160;SDS011;4615;51.340;8.288;2023-04-06T03:16:50;7.40;;;6.70;;
9160;SDS011;4615;51.340;8.288;2023-04-06T03:19:16;8.48;;;6.55;;
9160;SDS011;4615;51.340;8.288;2023-04-06T03:21:43;6.40;;;5.80;;
9160;SDS011;4615;51.340;8.288;2023-04-06T03:24:10;7.78;;;7.07;;
9160;SDS011;4615;51.340;8.288;2023-04-06T03:26:37;8.00;;;7.20;;
9160;SDS011;4615;51.340;8.288;2023-04-06T03:29:04;7.75;;;6.90;;
9160;SDS011;4615;51.340;8.288;2023-04-06T03:31:31;7.65;;;6.72;;
9160;SDS011;4615;51.340;8.288;2023-04-06T03:33:57;8.68;;;6.43;;
9160;SDS011;4615;51.340;8.288;2023-04-06T03:36:24;8.27;;;7.38;;
9160;SDS011;4615;51.340;8.288;2023-04-06T03:38:51;8.20;;;7.40;;
9160;SDS011;4615;51.340;8.288;2023-04-06T03:41:19;7.35;;;6.65;;
9160;SDS011;4615;51.340;8.288;2023-04-06T03:43:46;8.30;;;7.50;;
9160;SDS011;4615;51.340;8.288;2023-04-06T03:46:12;7.03;;;6.32;;
9160;SDS011;4615;51.340;8.288;2023-04-06T03:48:39;8.27;;;6.75;;
9160;SDS011;4615;51.340;8.288;2023-04-06T03:51:06;6.90;;;6.30;;
9160;SDS011;4615;51.340;8.288;2023-04-06T03:53:32;7.30;;;6.60;;
9160;SDS011;4615;51.340;8.288;2023-04-06T03:55:58;7.47;;;6.70;;
9160;SDS011;4615;51.340;8.288;2023-04-06T03:58:26;7.15;;;6.45;;
9160;SDS011;4615;51.340;8.288;2023-04-06T04:00:53;10.73;;;7.57;;
9160;SDS011;4615;51.340;8.288;2023-04-06T04:03:19;7.80;;;7.10;;
9160;SDS011;4615;51.340;8.288;2023-04-06T04:05:46;7.95;;;7.25;;
9160;SDS011;4615;51.340;8.288;2023-04-06T04:08:13;7.72;;;6.93;;
9160;SDS011;4615;51.340;8.288;2023-04-06T04:10:39;7.93;;;7.18;;
9160;SDS011;4615;51.340;8.288;2023-04-06T04:13:06;7.73;;;6.93;;
9160;SDS011;4615;51.340;8.288;2023-04-06T04:15:33;7.70;;;7.00;;
9160;SDS011;4615;51.340;8.288;2023-04-06T04:18:00;7.60;;;6.90;;
9160;SDS011;4615;51.340;8.288;2023-04-06T04:20:26;8.27;;;7.47;;
9160;SDS011;4615;51.340;8.288;2023-04-06T04:22:53;7.68;;;6.97;;
9160;SDS011;4615;51.340;8.288;2023-04-06T04:25:20;7.55;;;6.82;;
9160;SDS011;4615;51.340;8.288;2023-04-06T04:27:46;8.00;;;7.20;;
9160;SDS011;4615;51.340;8.288;2023-04-06T04:30:13;7.90;;;6.97;;
9160;SDS011;4615;51.340;8.288;2023-04-06T04:32:40;8.23;;;7.43;;
9160;SDS011;4615;51.340;8.288;2023-04-06T04:35:07;7.90;;;7.10;;
9160;SDS011;4615;51.340;8.288;2023-04-06T04:37:34;7.80;;;7.00;;
9160;SDS011;4615;51.340;8.288;2023-04-06T04:40:00;7.30;;;6.60;;
9160;SDS011;4615;51.340;8.288;2023-04-06T04:42:27;7.85;;;6.90;;
9160;SDS011;4615;51.340;8.288;2023-04-06T04:44:54;7.53;;;6.83;;
9160;SDS011;4615;51.340;8.288;2023-04-06T04:47:20;8.07;;;6.90;;
9160;SDS011;4615;51.340;8.288;2023-04-06T04:49:48;7.63;;;6.82;;
9160;SDS011;4615;51.340;8.288;2023-04-06T04:52:15;7.70;;;7.00;;
9160;SDS011;4615;51.340;8.288;2023-04-06T04:54:41;7.13;;;6.53;;
9160;SDS011;4615;51.340;8.288;2023-04-06T04:57:07;7.27;;;6.67;;
9160;SDS011;4615;51.340;8.288;2023-04-06T04:59:34;7.25;;;6.55;;
9160;SDS011;4615;51.340;8.288;2023-04-06T05:02:01;7.40;;;6.65;;
9160;SDS011;4615;51.340;8.288;2023-04-06T05:04:27;8.43;;;6.97;;
9160;SDS011;4615;51.340;8.288;2023-04-06T05:07:03;7.72;;;6.93;;
9160;SDS011;4615;51.340;8.288;2023-04-06T05:09:29;7.50;;;6.70;;
9160;SDS011;4615;51.340;8.288;2023-04-06T05:11:56;8.20;;;7.32;;
9160;SDS011;4615;51.340;8.288;2023-04-06T05:14:22;9.20;;;7.32;;
9160;SDS011;4615;51.340;8.288;2023-04-06T05:16:49;7.97;;;7.20;;
9160;SDS011;4615;51.340;8.288;2023-04-06T05:19:15;8.10;;;7.38;;
9160;SDS011;4615;51.340;8.288;2023-04-06T05:21:42;8.30;;;7.47;;
9160;SDS011;4615;51.340;8.288;2023-04-06T05:24:10;7.93;;;7.13;;
9160;SDS011;4615;51.340;8.288;2023-04-06T05:26:36;7.97;;;7.28;;
9160;SDS011;4615;51.340;8.288;2023-04-06T05:29:03;8.60;;;7.75;;
9160;SDS011;4615;51.340;8.288;2023-04-06T05:31:29;8.98;;;7.78;;
9160;SDS011;4615;51.340;8.288;2023-04-06T05:33:56;8.07;;;7.30;;
9160;SDS011;4615;51.340;8.288;2023-04-06T05:36:23;7.60;;;6.90;;
9160;SDS011;4615;51.340;8.288;2023-04-06T05:38:49;7.43;;;6.72;;
9160;SDS011;4615;51.340;8.288;2023-04-06T05:41:19;8.18;;;7.22;;
9160;SDS011;4615;51.340;8.288;2023-04-06T05:43:46;8.95;;;7.70;;
9160;SDS011;4615;51.340;8.288;2023-04-06T05:46:12;8.50;;;7.67;;
9160;SDS011;4615;51.340;8.288;2023-04-06T05:48:39;9.05;;;8.10;;
9160;SDS011;4615;51.340;8.288;2023-04-06T05:51:05;8.63;;;7.72;;
9160;SDS011;4615;51.340;8.288;2023-04-06T05:53:32;8.70;;;7.80;;
9160;SDS011;4615;51.340;8.288;2023-04-06T05:56:00;8.50;;;7.70;;
9160;SDS011;4615;51.340;8.288;2023-04-06T05:58:28;8.60;;;7.70;;
9160;SDS011;4615;51.340;8.288;2023-04-06T06:00:56;11.15;;;9.95;;
9160;SDS011;4615;51.340;8.288;2023-04-06T06:03:22;12.57;;;10.60;;
9160;SDS011;4615;51.340;8.288;2023-04-06T06:05:49;15.40;;;13.63;;
9160;SDS011;4615;51.340;8.288;2023-04-06T06:08:15;14.98;;;13.50;;
9160;SDS011;4615;51.340;8.288;2023-04-06T06:10:42;13.48;;;12.18;;
9160;SDS011;4615;51.340;8.288;2023-04-06T06:13:08;13.30;;;11.30;;
9160;SDS011;4615;51.340;8.288;2023-04-06T06:15:36;10.13;;;8.88;;
9160;SDS011;4615;51.340;8.288;2023-04-06T06:18:03;9.63;;;8.70;;
9160;SDS011;4615;51.340;8.288;2023-04-06T06:20:29;9.25;;;8.35;;
9160;SDS011;4615;51.340;8.288;2023-04-06T06:22:56;8.60;;;7.80;;
9160;SDS011;4615;51.340;8.288;2023-04-06T06:25:22;8.88;;;8.07;;
9160;SDS011;4615;51.340;8.288;2023-04-06T06:27:49;8.73;;;7.83;;
9160;SDS011;4615;51.340;8.288;2023-04-06T06:30:15;9.00;;;8.20;;
9160;SDS011;4615;51.340;8.288;2023-04-06T06:32:43;9.70;;;7.95;;
9160;SDS011;4615;51.340;8.288;2023-04-06T06:35:11;9.52;;;8.52;;
9160;SDS011;4615;51.340;8.288;2023-04-06T06:37:37;9.02;;;8.13;;
9160;SDS011;4615;51.340;8.288;2023-04-06T06:40:04;9.40;;;8.50;;
9160;SDS011;4615;51.340;8.288;2023-04-06T06:42:31;9.25;;;8.30;;
9160;SDS011;4615;51.340;8.288;2023-04-06T06:44:57;9.93;;;8.20;;
9160;SDS011;4615;51.340;8.288;2023-04-06T06:47:24;10.07;;;8.65;;
9160;SDS011;4615;51.340;8.288;2023-04-06T06:49:51;8.38;;;7.57;;
9160;SDS011;4615;51.340;8.288;2023-04-06T06:52:18;8.50;;;7.70;;
9160;SDS011;4615;51.340;8.288;2023-04-06T06:54:45;8.95;;;7.13;;
9160;SDS011;4615;51.340;8.288;2023-04-06T06:57:11;9.63;;;7.65;;
9160;SDS011;4615;51.340;8.288;2023-04-06T06:59:38;9.00;;;7.78;;
9160;SDS011;4615;51.340;8.288;2023-04-06T07:02:04;8.13;;;7.38;;
9160;SDS011;4615;51.340;8.288;2023-04-06T07:04:31;8.80;;;7.90;;
9160;SDS011;4615;51.340;8.288;2023-04-06T07:06:59;9.38;;;8.43;;
9160;SDS011;4615;51.340;8.288;2023-04-06T07:09:26;9.38;;;8.48;;
9160;SDS011;4615;51.340;8.288;2023-04-06T07:11:52;10.25;;;9.25;;
9160;SDS011;4615;51.340;8.288;2023-04-06T07:14:19;12.57;;;9.77;;
9160;SDS011;4615;51.340;8.288;2023-04-06T07:16:45;9.75;;;8.75;;
9160;SDS011;4615;51.340;8.288;2023-04-06T07:19:13;10.65;;;9.27;;
9160;SDS011;4615;51.340;8.288;2023-04-06T07:21:40;10.38;;;9.25;;
9160;SDS011;4615;51.340;8.288;2023-04-06T07:24:08;11.90;;;9.50;;
9160;SDS011;4615;51.340;8.288;2023-04-06T07:26:34;10.52;;;9.00;;
9160;SDS011;4615;51.340;8.288;2023-04-06T07:29:01;10.35;;;8.93;;
9160;SDS011;4615;51.340;8.288;2023-04-06T07:31:27;11.75;;;9.73;;
9160;SDS011;4615;51.340;8.288;2023-04-06T07:33:54;13.70;;;10.40;;
9160;SDS011;4615;51.340;8.288;2023-04-06T07:36:21;13.65;;;10.10;;
9160;SDS011;4615;51.340;8.288;2023-04-06T07:38:47;11.18;;;9.35;;
9160;SDS011;4615;51.340;8.288;2023-04-06T07:41:15;12.02;;;9.45;;
9160;SDS011;4615;51.340;8.288;2023-04-06T07:43:41;11.50;;;9.38;;
9160;SDS011;4615;51.340;8.288;2023-04-06T07:46:08;12.63;;;8.30;;
9160;SDS011;4615;51.340;8.288;2023-04-06T07:48:34;10.47;;;8.20;;
9160;SDS011;4615;51.340;8.288;2023-04-06T07:51:02;8.95;;;7.70;;
9160;SDS011;4615;51.340;8.288;2023-04-06T07:53:29;8.38;;;7.50;;
9160;SDS011;4615;51.340;8.288;2023-04-06T07:55:56;9.52;;;7.50;;
9160;SDS011;4615;51.340;8.288;2023-04-06T07:58:24;8.32;;;6.85;;
9160;SDS011;4615;51.340;8.288;2023-04-06T08:00:51;8.43;;;6.95;;
9160;SDS011;4615;51.340;8.288;2023-04-06T08:03:17;7.67;;;6.93;;
9160;SDS011;4615;51.340;8.288;2023-04-06T08:05:45;8.68;;;6.75;;
9160;SDS011;4615;51.340;8.288;2023-04-06T08:08:12;8.38;;;7.18;;
9160;SDS011;4615;51.340;8.288;2023-04-06T08:10:38;8.30;;;7.07;;
9160;SDS011;4615;51.340;8.288;2023-04-06T08:13:05;9.23;;;7.40;;
9160;SDS011;4615;51.340;8.288;2023-04-06T08:15:34;9.32;;;7.57;;
9160;SDS011;4615;51.340;8.288;2023-04-06T08:18:01;8.38;;;7.45;;
9160;SDS011;4615;51.340;8.288;2023-04-06T08:20:27;10.43;;;7.78;;
9160;SDS011;4615;51.340;8.288;2023-04-06T08:22:54;9.02;;;8.10;;
9160;SDS011;4615;51.340;8.288;2023-04-06T08:25:20;9.63;;;7.90;;
9160;SDS011;4615;51.340;8.288;2023-04-06T08:27:47;8.82;;;7.93;;
9160;SDS011;4615;51.340;8.288;2023-04-06T08:30:13;9.43;;;8.02;;
9160;SDS011;4615;51.340;8.288;2023-04-06T08:32:42;8.63;;;7.40;;
9160;SDS011;4615;51.340;8.288;2023-04-06T08:35:08;9.32;;;7.97;;
9160;SDS011;4615;51.340;8.288;2023-04-06T08:37:35;10.00;;;8.30;;
9160;SDS011;4615;51.340;8.288;2023-04-06T08:40:01;8.65;;;7.75;;
9160;SDS011;4615;51.340;8.288;2023-04-06T08:42:31;9.30;;;7.90;;
9160;SDS011;4615;51.340;8.288;2023-04-06T08:44:58;9.20;;;7.90;;
9160;SDS011;4615;51.340;8.288;2023-04-06T08:47:25;10.67;;;8.17;;
9160;SDS011;4615;51.340;8.288;2023-04-06T08:49:53;9.20;;;8.13;;
9160;SDS011;4615;51.340;8.288;2023-04-06T08:52:20;9.73;;;7.53;;
9160;SDS011;4615;51.340;8.288;2023-04-06T08:54:46;10.52;;;8.30;;
9160;SDS011;4615;51.340;8.288;2023-04-06T08:57:13;10.27;;;8.15;;
9160;SDS011;4615;51.340;8.288;2023-04-06T08:59:40;9.73;;;7.75;;
9160;SDS011;4615;51.340;8.288;2023-04-06T09:02:06;12.33;;;8.60;;
9160;SDS011;4615;51.340;8.288;2023-04-06T09:04:38;9.70;;;8.65;;
9160;SDS011;4615;51.340;8.288;2023-04-06T09:07:06;9.83;;;8.83;;
9160;SDS011;4615;51.340;8.288;2023-04-06T09:09:33;9.50;;;7.90;;
9160;SDS011;4615;51.340;8.288;2023-04-06T09:11:59;9.68;;;8.43;;
9160;SDS011;4615;51.340;8.288;2023-04-06T09:14:34;10.50;;;9.27;;
9160;SDS011;4615;51.340;8.288;2023-04-06T09:17:01;11.02;;;8.70;;
9160;SDS011;4615;51.340;8.288;2023-04-06T09:19:27;10.00;;;9.00;;
9160;SDS011;4615;51.340;8.288;2023-04-06T09:22:00;10.13;;;9.02;;
9160;SDS011;4615;51.340;8.288;2023-04-06T09:24:38;10.93;;;9.30;;
9160;SDS011;4615;51.340;8.288;2023-04-06T09:27:05;9.73;;;8.73;;
9160;SDS011;4615;51.340;8.288;2023-04-06T09:29:31;11.00;;;9.55;;
9160;SDS011;4615;51.340;8.288;2023-04-06T09:32:04;9.98;;;8.93;;
9160;SDS011;4615;51.340;8.288;2023-04-06T09:34:31;9.70;;;8.73;;
9160;SDS011;4615;51.340;8.288;2023-04-06T09:36:57;10.60;;;9.43;;
9160;SDS011;4615;51.340;8.288;2023-04-06T09:39:24;11.48;;;9.20;;
9160;SDS011;4615;51.340;8.288;2023-04-06T09:41:53;10.73;;;9.63;;
9160;SDS011;4615;51.340;8.288;2023-04-06T09:44:20;10.00;;;8.97;;
9160;SDS011;4615;51.340;8.288;2023-04-06T09:46:49;10.80;;;9.43;;
9160;SDS011;4615;51.340;8.288;2023-04-06T09:49:15;11.63;;;9.40;;
9160;SDS011;4615;51.340;8.288;2023-04-06T09:51:45;10.70;;;9.60;;
9160;SDS011;4615;51.340;8.288;2023-04-06T09:54:12;9.97;;;8.97;;
9160;SDS011;4615;51.340;8.288;2023-04-06T09:56:43;10.30;;;9.18;;
9160;SDS011;4615;51.340;8.288;2023-04-06T09:59:13;10.35;;;9.10;;
9160;SDS011;4615;51.340;8.288;2023-04-06T10:01:40;11.55;;;9.43;;
9160;SDS011;4615;51.340;8.288;2023-04-06T10:04:09;11.77;;;9.45;;
9160;SDS011;4615;51.340;8.288;2023-04-06T10:06:38;12.23;;;9.63;;
9160;SDS011;4615;51.340;8.288;2023-04-06T10:09:05;9.90;;;8.85;;
9160;SDS011;4615;51.340;8.288;2023-04-06T10:11:33;11.23;;;9.43;;
9160;SDS011;4615;51.340;8.288;2023-04-06T10:13:59;10.80;;;9.63;;
9160;SDS011;4615;51.340;8.288;2023-04-06T10:16:28;12.02;;;10.18;;
9160;SDS011;4615;51.340;8.288;2023-04-06T10:18:56;11.80;;;10.50;;
9160;SDS011;4615;51.340;8.288;2023-04-06T10:21:25;11.57;;;10.43;;
9160;SDS011;4615;51.340;8.288;2023-04-06T10:23:52;12.23;;;11.02;;
9160;SDS011;4615;51.340;8.288;2023-04-06T10:26:20;12.68;;;11.20;;
9160;SDS011;4615;51.340;8.288;2023-04-06T10:28:47;12.75;;;11.45;;
9160;SDS011;4615;51.340;8.288;2023-04-06T10:31:14;14.10;;;12.60;;
9160;SDS011;4615;51.340;8.288;2023-04-06T10:33:52;13.80;;;12.40;;
9160;SDS011;4615;51.340;8.288;2023-04-06T10:36:21;13.90;;;12.50;;
9160;SDS011;4615;51.340;8.288;2023-04-06T10:38:53;13.60;;;12.10;;
9160;SDS011;4615;51.340;8.288;2023-04-06T10:41:19;13.93;;;12.52;;
9160;SDS011;4615;51.340;8.288;2023-04-06T10:43:54;14.18;;;12.77;;
9160;SDS011;4615;51.340;8.288;2023-04-06T10:46:24;14.52;;;13.02;;
9160;SDS011;4615;51.340;8.288;2023-04-06T10:48:52;14.18;;;12.77;;
9160;SDS011;4615;51.340;8.288;2023-04-06T10:51:19;14.57;;;13.07;;
9160;SDS011;4615;51.340;8.288;2023-04-06T10:53:52;13.52;;;12.23;;
9160;SDS011;4615;51.340;8.288;2023-04-06T10:56:21;14.57;;;12.77;;
9160;SDS011;4615;51.340;8.288;2023-04-06T10:58:48;14.32;;;12.82;;
9160;SDS011;4615;51.340;8.288;2023-04-06T11:01:15;13.57;;;12.02;;
9160;SDS011;4615;51.340;8.288;2023-04-06T11:03:42;12.68;;;11.48;;
9160;SDS011;4615;51.340;8.288;2023-04-06T11:06:11;13.07;;;11.77;;
9160;SDS011;4615;51.340;8.288;2023-04-06T11:08:43;13.10;;;11.80;;
9160;SDS011;4615;51.340;8.288;2023-04-06T11:11:10;13.85;;;12.20;;
9160;SDS011;4615;51.340;8.288;2023-04-06T11:13:40;13.70;;;12.30;;
9160;SDS011;4615;51.340;8.288;2023-04-06T11:16:11;13.18;;;11.90;;
9160;SDS011;4615;51.340;8.288;2023-04-06T11:18:38;13.00;;;11.70;;
9160;SDS011;4615;51.340;8.288;2023-04-06T11:21:04;12.75;;;11.45;;
9160;SDS011;4615;51.340;8.288;2023-04-06T11:23:32;12.82;;;11.52;;
9160;SDS011;4615;51.340;8.288;2023-04-06T11:25:59;13.27;;;11.98;;
9160;SDS011;4615;51.340;8.288;2023-04-06T11:28:25;13.20;;;11.52;;
9160;SDS011;4615;51.340;8.288;2023-04-06T11:30:52;11.75;;;10.65;;
9160;SDS011;4615;51.340;8.288;2023-04-06T11:33:21;12.82;;;11.60;;
9160;SDS011;4615;51.340;8.288;2023-04-06T11:35:48;10.90;;;9.88;;
9160;SDS011;4615;51.340;8.288;2023-04-06T11:38:14;9.77;;;8.88;;
9160;SDS011;4615;51.340;8.288;2023-04-06T11:40:42;10.68;;;9.68;;
9160;SDS011;4615;51.340;8.288;2023-04-06T11:43:10;10.80;;;9.70;;
9160;SDS011;4615;51.340;8.288;2023-04-06T11:45:39;11.07;;;9.63;;
9160;SDS011;4615;51.340;8.288;2023-04-06T11:48:16;10.38;;;9.40;;
9160;SDS011;4615;51.340;8.288;2023-04-06T11:50:43;10.77;;;9.77;;
9160;SDS011;4615;51.340;8.288;2023-04-06T11:53:12;11.27;;;10.27;;
9160;SDS011;4615;51.340;8.288;2023-04-06T11:55:39;11.48;;;10.27;;
9160;SDS011;4615;51.340;8.288;2023-04-06T11:58:06;11.13;;;10.05;;
9160;SDS011;4615;51.340;8.288;2023-04-06T12:00:33;10.70;;;9.68;;
9160;SDS011;4615;51.340;8.288;2023-04-06T12:03:02;11.10;;;9.95;;
9160;SDS011;4615;51.340;8.288;2023-04-06T12:05:28;10.70;;;9.70;;
9160;SDS011;4615;51.340;8.288;2023-04-06T12:07:55;10.50;;;9.40;;
9160;SDS011;4615;51.340;8.288;2023-04-06T12:10:22;10.40;;;9.40;;
9160;SDS011;4615;51.340;8.288;2023-04-06T12:12:49;9.43;;;8.52;;
9160;SDS011;4615;51.340;8.288;2023-04-06T12:15:17;9.02;;;8.13;;
9160;SDS011;4615;51.340;8.288;2023-04-06T12:17:43;8.70;;;7.88;;
9160;SDS011;4615;51.340;8.288;2023-04-06T12:20:10;8.68;;;7.65;;
9160;SDS011;4615;51.340;8.288;2023-04-06T12:22:36;8.43;;;7.63;;
9160;SDS011;4615;51.340;8.288;2023-04-06T12:25:03;9.52;;;7.43;;
9160;SDS011;4615;51.340;8.288;2023-04-06T12:27:30;8.13;;;7.25;;
9160;SDS011;4615;51.340;8.288;2023-04-06T12:29:56;7.80;;;7.00;;
9160;SDS011;4615;51.340;8.288;2023-04-06T12:32:24;8.57;;;7.68;;
9160;SDS011;4615;51.340;8.288;2023-04-06T12:34:51;7.82;;;7.10;;
9160;SDS011;4615;51.340;8.288;2023-04-06T12:37:18;7.75;;;7.03;;
9160;SDS011;4615;51.340;8.288;2023-04-06T12:39:45;7.90;;;7.15;;
9160;SDS011;4615;51.340;8.288;2023-04-06T12:42:11;7.75;;;6.90;;
9160;SDS011;4615;51.340;8.288;2023-04-06T12:44:39;7.72;;;6.80;;
9160;SDS011;4615;51.340;8.288;2023-04-06T12:47:05;7.90;;;7.10;;
9160;SDS011;4615;51.340;8.288;2023-04-06T12:49:33;7.33;;;6.63;;
9160;SDS011;4615;51.340;8.288;2023-04-06T12:52:01;7.85;;;6.93;;
9160;SDS011;4615;51.340;8.288;2023-04-06T12:54:28;7.20;;;6.60;;
9160;SDS011;4615;51.340;8.288;2023-04-06T12:56:54;8.43;;;7.53;;
9160;SDS011;4615;51.340;8.288;2023-04-06T12:59:21;8.10;;;7.30;;
9160;SDS011;4615;51.340;8.288;2023-04-06T13:01:50;9.32;;;7.93;;
9160;SDS011;4615;51.340;8.288;2023-04-06T13:04:17;8.50;;;7.43;;
9160;SDS011;4615;51.340;8.288;2023-04-06T13:06:45;8.07;;;7.07;;
9160;SDS011;4615;51.340;8.288;2023-04-06T13:09:11;8.05;;;7.25;;
9160;SDS011;4615;51.340;8.288;2023-04-06T13:11:38;8.13;;;7.33;;
9160;SDS011;4615;51.340;8.288;2023-04-06T13:14:06;8.95;;;8.07;;
9160;SDS011;4615;51.340;8.288;2023-04-06T13:16:32;9.43;;;7.70;;
9160;SDS011;4615;51.340;8.288;2023-04-06T13:19:00;9.05;;;7.97;;
9160;SDS011;4615;51.340;8.288;2023-04-06T13:21:26;9.88;;;8.45;;
9160;SDS011;4615;51.340;8.288;2023-04-06T13:23:54;8.70;;;7.90;;
9160;SDS011;4615;51.340;8.288;2023-04-06T13:26:20;8.98;;;7.82;;
9160;SDS011;4615;51.340;8.288;2023-04-06T13:28:47;8.88;;;8.02;;
9160;SDS011;4615;51.340;8.288;2023-04-06T13:31:13;9.85;;;8.88;;
9160;SDS011;4615;51.340;8.288;2023-04-06T13:33:40;9.13;;;7.68;;
9160;SDS011;4615;51.340;8.288;2023-04-06T13:36:07;7.88;;;7.07;;
9160;SDS011;4615;51.340;8.288;2023-04-06T13:38:33;8.05;;;7.35;;
9160;SDS011;4615;51.340;8.288;2023-04-06T13:41:01;7.88;;;7.07;;
9160;SDS011;4615;51.340;8.288;2023-04-06T13:43:27;9.05;;;8.15;;
9160;SDS011;4615;51.340;8.288;2023-04-06T13:45:54;9.63;;;8.73;;
9160;SDS011;4615;51.340;8.288;2023-04-06T13:48:23;9.05;;;8.18;;
9160;SDS011;4615;51.340;8.288;2023-04-06T13:50:50;9.20;;;8.25;;
9160;SDS011;4615;51.340;8.288;2023-04-06T13:53:17;8.98;;;8.13;;
9160;SDS011;4615;51.340;8.288;2023-04-06T13:55:43;8.60;;;7.80;;
9160;SDS011;4615;51.340;8.288;2023-04-06T13:58:11;9.95;;;8.77;;
9160;SDS011;4615;51.340;8.288;2023-04-06T14:00:38;9.77;;;8.37;;
9160;SDS011;4615;51.340;8.288;2023-04-06T14:03:05;9.65;;;7.55;;
9160;SDS011;4615;51.340;8.288;2023-04-06T14:05:31;8.50;;;7.70;;
9160;SDS011;4615;51.340;8.288;2023-04-06T14:07:58;8.23;;;7.43;;
9160;SDS011;4615;51.340;8.288;2023-04-06T14:10:24;8.45;;;7.65;;
9160;SDS011;4615;51.340;8.288;2023-04-06T14:12:52;9.43;;;8.43;;
9160;SDS011;4615;51.340;8.288;2023-04-06T14:15:20;8.88;;;7.97;;
9160;SDS011;4615;51.340;8.288;2023-04-06T14:17:47;9.15;;;8.25;;
9160;SDS011;4615;51.340;8.288;2023-04-06T14:20:14;9.93;;;8.45;;
9160;SDS011;4615;51.340;8.288;2023-04-06T14:22:40;9.20;;;8.00;;
9160;SDS011;4615;51.340;8.288;2023-04-06T14:25:07;9.68;;;8.60;;
9160;SDS011;4615;51.340;8.288;2023-04-06T14:27:34;9.77;;;8.87;;
9160;SDS011;4615;51.340;8.288;2023-04-06T14:30:01;8.90;;;8.10;;
9160;SDS011;4615;51.340;8.288;2023-04-06T14:32:29;9.60;;;8.60;;
9160;SDS011;4615;51.340;8.288;2023-04-06T14:34:55;9.80;;;8.80;;
9160;SDS011;4615;51.340;8.288;2023-04-06T14:37:21;10.13;;;8.98;;
9160;SDS011;4615;51.340;8.288;2023-04-06T14:39:48;9.45;;;8.55;;
9160;SDS011;4615;51.340;8.288;2023-04-06T14:42:14;10.13;;;9.00;;
9160;SDS011;4615;51.340;8.288;2023-04-06T14:44:41;10.00;;;8.85;;
9160;SDS011;4615;51.340;8.288;2023-04-06T14:47:10;9.60;;;8.60;;
9160;SDS011;4615;51.340;8.288;2023-04-06T14:49:38;9.23;;;8.32;;
9160;SDS011;4615;51.340;8.288;2023-04-06T14:52:04;10.25;;;8.93;;
9160;SDS011;4615;51.340;8.288;2023-04-06T14:54:31;9.53;;;8.60;;
9160;SDS011;4615;51.340;8.288;2023-04-06T14:56:57;9.48;;;8.48;;
9160;SDS011;4615;51.340;8.288;2023-04-06T14:59:24;10.70;;;8.18;;
9160;SDS011;4615;51.340;8.288;2023-04-06T15:01:50;9.13;;;8.20;;
9160;SDS011;4615;51.340;8.288;2023-04-06T15:04:16;9.18;;;8.00;;
9160;SDS011;4615;51.340;8.288;2023-04-06T15:06:44;9.02;;;8.13;;
9160;SDS011;4615;51.340;8.288;2023-04-06T15:09:13;8.68;;;7.88;;